Queen Victoria — ZCEF3 — position and weather

sailwx.info

Track history (hours):
 
Tides and Currents Weather Stations Pressure Air Temp Water Temp Dewpoint Dewpoint Depression Visibility Wind Speed Wind Dir Waves Ship Positions

Queen Victoria

Last reported at 2018-Jul-22 16:30 UTC. Time now 2018-Jul-22 16:26 UTC.
Position N 37°47' W 009°52'.

Length 294 m; draft 8 m.

Type: Passenger vessel. MMSI: 310624000.

Date/timePositionNaut miles runAvg speedWind from/ knotsBaromVisibWave heightAir tempDewpointWater temp
2018-Jul-22 16:30N 37°47' W 009°52'1218.5
2018-Jul-22 15:51N 37°59' W 009°55'1718.4
2018-Jul-22 14:57N 38°15' W 009°57'818.7
2018-Jul-22 14:30N 38°23' W 009°60'918.6
2018-Jul-22 14:00N 38°32' W 010°03'918.0
2018-Jul-22 13:30N 38°41' W 010°05'917.8
2018-Jul-22 13:00N 38°50' W 010°05'917.9
2018-Jul-22 12:30N 38°59' W 010°05'918.5
2018-Jul-22 12:00N 39°08' W 010°05'1019.2
2018-Jul-22 11:30N 39°18' W 010°05'1118.9
2018-Jul-22 10:56N 39°29' W 010°05'819.0
2018-Jul-22 10:30N 39°37' W 010°05'53619.5
2018-Jul-21 07:00N 48°00' W 005°48'3121.5 290 / 201014.1 5.4 17.816.620.0
2018-Jul-21 05:33N 48°28' W 005°28'319.6
2018-Jul-21 05:24N 48°31' W 005°26'819.7
2018-Jul-21 05:00N 48°36' W 005°18'1019.9
2018-Jul-21 04:30N 48°44' W 005°08'1019.9
2018-Jul-21 04:00N 48°50' W 004°57'1019.7
2018-Jul-21 03:30N 48°57' W 004°45'6518.6
2018-Jul-21 00:02N 49°41' W 003°33'418.0
2018-Jul-20 23:48N 49°43' W 003°27'518.0
2018-Jul-20 23:30N 49°47' W 003°21'918.3
2018-Jul-20 23:00N 49°53' W 003°10'918.7
2018-Jul-20 22:30N 49°59' W 002°60'918.9
2018-Jul-20 22:00N 50°02' W 002°46'1019.4
2018-Jul-20 21:30N 50°05' W 002°31'1619.8
2018-Jul-20 20:41N 50°11' W 002°08'420.2
2018-Jul-20 20:29N 50°13' W 002°03'1020.3
2018-Jul-20 20:00N 50°18' W 001°49'1320.8
2018-Jul-20 19:23N 50°24' W 001°32'1120.8
2018-Jul-20 18:52N 50°28' W 001°16'820.9
2018-Jul-20 18:30N 50°32' W 001°05'918.7
2018-Jul-20 18:00N 50°40' W 000°59'4 8.5
2018-Jul-20 17:30N 50°44' W 001°02'815.9
2018-Jul-20 17:00N 50°46' W 001°14'5 9.3
2018-Jul-20 16:30N 50°50' W 001°19'4 8.6
2018-Jul-20 16:00N 50°53' W 001°23'0 0.8
2018-Jul-20 15:28N 50°53' W 001°24'0 0.0
2018-Jul-20 14:58N 50°53' W 001°24'0 0.0
2018-Jul-20 14:28N 50°53' W 001°24'0 0.0
2018-Jul-20 13:52N 50°53' W 001°24'0 0.0
2018-Jul-20 13:25N 50°53' W 001°24'0 0.0
2018-Jul-20 12:58N 50°53' W 001°24'0 0.0
2018-Jul-20 12:28N 50°53' W 001°24'0 0.0
2018-Jul-20 11:58N 50°53' W 001°24'0 0.0
2018-Jul-20 11:28N 50°53' W 001°24'0 0.0
2018-Jul-20 10:58N 50°53' W 001°24'0 0.0
2018-Jul-20 10:28N 50°53' W 001°24'0 0.0
2018-Jul-20 09:58N 50°53' W 001°24'0 0.0
2018-Jul-20 09:28N 50°53' W 001°24'0 0.0
2018-Jul-20 08:58N 50°53' W 001°24'0 0.0
2018-Jul-20 08:28N 50°53' W 001°24'0 0.0
2018-Jul-20 07:58N 50°53' W 001°24'0 0.0
2018-Jul-20 07:28N 50°53' W 001°24'0 0.0
2018-Jul-20 06:58N 50°53' W 001°24'0 0.0
2018-Jul-20 06:28N 50°53' W 001°24'0 0.0
2018-Jul-20 05:58N 50°53' W 001°24'0 0.0
2018-Jul-20 05:30N 50°53' W 001°24'3 5.3
2018-Jul-20 05:00N 50°51' W 001°21'4 8.3
2018-Jul-20 04:30N 50°47' W 001°19'713.8
2018-Jul-20 04:01N 50°46' W 001°08'816.2
2018-Jul-20 03:31N 50°41' W 000°57'611.5
2018-Jul-20 03:00N 50°36' W 000°53'816.7
2018-Jul-20 02:30N 50°35' W 000°40'918.0
2018-Jul-20 02:00N 50°34' W 000°26'917.9
2018-Jul-20 01:30N 50°32' W 000°12'917.8
2018-Jul-20 01:00N 50°32' E 000°02'1020.0
2018-Jul-20 00:30N 50°35' E 000°17'1020.6
2018-Jul-20 00:00N 50°38' E 000°33'1121.6
2018-Jul-19 23:31N 50°44' E 000°46'1122.0
2018-Jul-19 23:00N 50°51' E 001°01'1122.3
2018-Jul-19 22:30N 50°58' E 001°14'1122.1
2018-Jul-19 22:00N 51°05' E 001°28'1121.5
2018-Jul-19 21:30N 51°12' E 001°41'1020.8
2018-Jul-19 21:00N 51°19' E 001°53'1020.2
2018-Jul-19 20:30N 51°27' E 002°02'1019.8
2018-Jul-19 20:01N 51°35' E 002°12'1818.0
2018-Jul-19 19:00N 51°48' E 002°31'917.5
2018-Jul-19 18:30N 51°57' E 002°33'917.7
2018-Jul-19 18:00N 52°06' E 002°36'918.1
2018-Jul-19 17:30N 52°14' E 002°41'918.8
2018-Jul-19 17:00N 52°23' E 002°47'1019.2
2018-Jul-19 16:30N 52°32' E 002°54'1019.7
2018-Jul-19 16:01N 52°40' E 003°02'1019.9
2018-Jul-19 15:30N 52°49' E 003°09'1019.9
2018-Jul-19 15:00N 52°58' E 003°17'2020.1
2018-Jul-19 14:00N 53°17' E 003°27'1019.9
2018-Jul-19 13:30N 53°27' E 003°32'1119.6
2018-Jul-19 12:58N 53°37' E 003°37'1018.4
2018-Jul-19 12:27N 53°45' E 003°45'918.8
2018-Jul-19 12:00N 53°50' E 003°56'2418.6
2018-Jul-19 10:43N 54°05' E 004°28'21719.3
2018-Jul-18 23:26N 57°06' E 008°02'2117.6
2018-Jul-18 22:15N 57°22' E 008°26'417.5
2018-Jul-18 22:00N 57°24' E 008°33'4217.5
2018-Jul-18 19:35N 57°47' E 009°40'117.9
2018-Jul-18 19:30N 57°47' E 009°42'917.6
2018-Jul-18 19:00N 57°50' E 009°58'918.3
2018-Jul-18 18:30N 57°50' E 010°15'1017.8
2018-Jul-18 17:57N 57°50' E 010°33'817.1
2018-Jul-18 17:31N 57°49' E 010°47'917.7
2018-Jul-18 17:00N 57°45' E 011°02'918.1
2018-Jul-18 16:30N 57°40' E 011°17'918.5
2018-Jul-18 16:00N 57°36' E 011°33'611.7
2018-Jul-18 15:31N 57°39' E 011°43'4 8.6
2018-Jul-18 15:01N 57°41' E 011°49'0 0.5
2018-Jul-18 14:28N 57°42' E 011°49'0 0.0
2018-Jul-18 13:28N 57°42' E 011°49'0 0.0
2018-Jul-18 12:58N 57°42' E 011°49'0 0.0
2018-Jul-18 12:28N 57°42' E 011°49'0 0.0
2018-Jul-18 11:58N 57°42' E 011°49'0 0.0
2018-Jul-18 11:28N 57°42' E 011°49'0 0.0
2018-Jul-18 10:28N 57°42' E 011°49'0 0.0
2018-Jul-18 09:58N 57°42' E 011°49'0 0.0
2018-Jul-18 09:28N 57°42' E 011°49'0 0.0
2018-Jul-18 08:58N 57°42' E 011°49'0 0.0
2018-Jul-18 08:28N 57°42' E 011°49'0 0.0
2018-Jul-18 07:58N 57°42' E 011°49'0 0.0
2018-Jul-18 07:28N 57°42' E 011°49'0 0.0
2018-Jul-18 06:58N 57°42' E 011°49'0 0.0
2018-Jul-18 06:28N 57°42' E 011°49'0 0.1
2018-Jul-18 06:01N 57°42' E 011°49'1 2.0
2018-Jul-18 05:31N 57°41' E 011°49'611.9
2018-Jul-18 05:00N 57°37' E 011°40'713.2
2018-Jul-18 04:31N 57°31' E 011°35'918.0
2018-Jul-18 04:00N 57°22' E 011°31'1019.7
2018-Jul-18 03:31N 57°13' E 011°37'1019.5
2018-Jul-18 03:01N 57°04' E 011°43'1019.3
2018-Jul-18 02:31N 56°54' E 011°48'918.8
2018-Jul-18 02:00N 56°45' E 011°54'1019.0
2018-Jul-18 01:30N 56°37' E 011°46'918.8
2018-Jul-18 01:00N 56°29' E 011°36'918.5
2018-Jul-18 00:30N 56°21' E 011°28'918.1
2018-Jul-18 00:00N 56°13' E 011°20'1416.7
2018-Jul-17 23:08N 56°01' E 011°05'215.9
2018-Jul-17 22:59N 55°59' E 011°03'815.6
2018-Jul-17 22:30N 55°53' E 010°54'4117.2
2018-Jul-17 20:08N 55°13' E 011°06'217.8
2018-Jul-17 20:00N 55°11' E 011°05'917.7
2018-Jul-17 19:30N 55°02' E 011°01'917.2
2018-Jul-17 19:00N 54°55' E 010°52'917.5
2018-Jul-17 18:30N 54°47' E 010°49'714.3
2018-Jul-17 18:00N 54°40' E 010°45'611.9
2018-Jul-17 17:31N 54°35' E 010°39'713.3
2018-Jul-17 17:00N 54°32' E 010°29'714.3
2018-Jul-17 16:30N 54°29' E 010°18'510.6
2018-Jul-17 16:00N 54°24' E 010°12'5 0.6
2018-Jul-17 06:38N 54°20' E 010°09'0 0.5
2018-Jul-17 06:24N 54°20' E 010°09'1 3.3
2018-Jul-17 06:00N 54°21' E 010°10'4 8.3
2018-Jul-17 05:30N 54°25' E 010°12'612.2
2018-Jul-17 05:01N 54°30' E 010°18'816.4
2018-Jul-17 04:30N 54°33' E 010°31'918.9
2018-Jul-17 04:01N 54°35' E 010°47'918.4
2018-Jul-17 03:31N 54°36' E 011°03'918.4
2018-Jul-17 03:00N 54°34' E 011°18'1019.1
2018-Jul-17 02:30N 54°30' E 011°33'918.7
2018-Jul-17 02:00N 54°26' E 011°47'918.7
2018-Jul-17 01:30N 54°26' E 012°04'816.1
2018-Jul-17 01:00N 54°31' E 012°13'917.4
2018-Jul-17 00:30N 54°39' E 012°22'1919.4
2018-Jul-16 23:30N 54°48' E 012°51'1121.4
2018-Jul-16 23:00N 54°52' E 013°08'1221.6
2018-Jul-16 22:27N 54°57' E 013°28'921.5
2018-Jul-16 22:00N 54°59' E 013°44'1121.7
2018-Jul-16 21:30N 55°03' E 014°02'1121.9
2018-Jul-16 21:00N 55°11' E 014°14'1122.2
2018-Jul-16 20:30N 55°20' E 014°27'1122.0
2018-Jul-16 20:00N 55°27' E 014°41'1121.7
2018-Jul-16 19:31N 55°32' E 014°57'1122.1
2018-Jul-16 19:00N 55°38' E 015°15'1121.8
2018-Jul-16 18:30N 55°43' E 015°31'1121.6
2018-Jul-16 18:00N 55°49' E 015°47'1121.7
2018-Jul-16 17:30N 55°54' E 016°04'1121.8
2018-Jul-16 17:01N 55°60' E 016°21'1121.8
2018-Jul-16 16:30N 56°06' E 016°37'1121.8
2018-Jul-16 16:00N 56°12' E 016°53'1121.7
2018-Jul-16 15:30N 56°19' E 017°09'1122.0
2018-Jul-16 15:00N 56°26' E 017°24'1122.0
2018-Jul-16 14:30N 56°33' E 017°39'1122.0
2018-Jul-16 14:00N 56°40' E 017°55'1121.9
2018-Jul-16 13:30N 56°46' E 018°11'6821.7
2018-Jul-16 10:23N 57°38' E 019°31'821.9
2018-Jul-16 10:01N 57°45' E 019°40'1122.0
2018-Jul-16 09:30N 57°54' E 019°53'1122.0
2018-Jul-16 09:00N 58°03' E 020°05'3622.1
2018-Jul-16 07:23N 58°31' E 020°45'822.0
2018-Jul-16 07:00N 58°38' E 020°55'1122.1
2018-Jul-16 06:30N 58°47' E 021°08'1122.1
2018-Jul-16 06:00N 58°56' E 021°20'1122.1
2018-Jul-16 05:31N 59°05' E 021°33'1121.8
2018-Jul-16 05:00N 59°13' E 021°48'1121.8
2018-Jul-16 04:31N 59°18' E 022°06'1121.7
2018-Jul-16 04:00N 59°25' E 022°22'1121.6
2018-Jul-16 03:31N 59°31' E 022°41'1121.8
2018-Jul-16 03:01N 59°34' E 023°01'1121.8
2018-Jul-16 02:30N 59°37' E 023°22'1121.9
2018-Jul-16 02:00N 59°41' E 023°43'1121.9
2018-Jul-16 01:30N 59°44' E 024°03'1122.2
2018-Jul-16 01:00N 59°48' E 024°24'1121.9
2018-Jul-16 00:30N 59°50' E 024°45'1121.6
2018-Jul-16 00:00N 59°52' E 025°06'1121.7
2018-Jul-15 23:30N 59°53' E 025°27'1121.7
2018-Jul-15 23:01N 59°55' E 025°49'1121.5
2018-Jul-15 22:29N 59°58' E 026°10'1021.6
2018-Jul-15 22:00N 60°01' E 026°30'1121.1
2018-Jul-15 21:30N 60°00' E 026°51'1020.3
2018-Jul-15 21:00N 60°02' E 027°11'1121.4
2018-Jul-15 20:30N 60°07' E 027°30'1121.5
2018-Jul-15 20:00N 60°12' E 027°49'1020.5
2018-Jul-15 19:30N 60°10' E 028°10'1020.6
2018-Jul-15 19:01N 60°04' E 028°27'1020.7
2018-Jul-15 18:30N 60°03' E 028°48'1120.4
2018-Jul-15 17:59N 60°02' E 029°09'1016.5
2018-Jul-15 17:24N 60°02' E 029°28'512.6
2018-Jul-15 16:58N 60°00' E 029°39'5 8.9
2018-Jul-15 16:27N 59°58' E 029°47'410.0
2018-Jul-15 16:01N 59°56' E 029°55'5 9.4
2018-Jul-15 15:27N 59°56' E 030°05'3 6.6
2018-Jul-15 15:00N 59°57' E 030°11'0 0.2
2018-Jul-15 14:25N 59°57' E 030°11'0 0.0
2018-Jul-15 13:45N 59°57' E 030°11'0 0.0
2018-Jul-15 13:27N 59°57' E 030°11'0 0.0
2018-Jul-15 13:00N 59°57' E 030°11'0 0.0
2018-Jul-15 12:26N 59°57' E 030°11'0 0.0
2018-Jul-15 11:45N 59°57' E 030°11'0 0.0
2018-Jul-15 11:21N 59°57' E 030°11'0 0.0
2018-Jul-15 10:45N 59°57' E 030°11'0 0.0
2018-Jul-15 10:21N 59°57' E 030°11'0 0.0
2018-Jul-15 09:54N 59°57' E 030°11'0 0.0
2018-Jul-15 09:21N 59°57' E 030°11'0 0.0
2018-Jul-15 08:39N 59°57' E 030°11'0 0.0
2018-Jul-15 08:21N 59°57' E 030°11'0 0.0
2018-Jul-15 07:57N 59°57' E 030°11'0 0.0
2018-Jul-15 07:21N 59°57' E 030°11'0 0.0
2018-Jul-15 06:57N 59°57' E 030°11'0 0.0
2018-Jul-15 06:21N 59°57' E 030°11'0 0.0
2018-Jul-15 05:56N 59°57' E 030°11'0 0.0
2018-Jul-15 05:30N 59°57' E 030°11'0 0.0
2018-Jul-15 04:57N 59°57' E 030°11'0 0.0
2018-Jul-15 04:15N 59°57' E 030°11'0 0.0
2018-Jul-15 03:57N 59°57' E 030°11'0 0.0
2018-Jul-15 03:15N 59°57' E 030°11'0 0.0
2018-Jul-15 02:51N 59°57' E 030°11'0 0.0
2018-Jul-15 02:15N 59°57' E 030°11'0 0.0
2018-Jul-15 01:51N 59°57' E 030°11'0 0.0
2018-Jul-15 01:27N 59°57' E 030°11'0 0.0
2018-Jul-15 00:51N 59°57' E 030°11'0 0.0
2018-Jul-15 00:27N 59°57' E 030°11'0 0.0
2018-Jul-14 23:51N 59°57' E 030°11'0 0.0
2018-Jul-14 23:27N 59°57' E 030°11'0 0.0
2018-Jul-14 23:00N 59°57' E 030°11'0 0.0
2018-Jul-14 22:27N 59°57' E 030°11'0 0.0
2018-Jul-14 21:45N 59°57' E 030°11'0 0.0
2018-Jul-14 21:27N 59°57' E 030°11'0 0.0
2018-Jul-14 21:00N 59°57' E 030°11'0 0.0
2018-Jul-14 20:27N 59°57' E 030°11'0 0.0
2018-Jul-14 19:45N 59°57' E 030°11'0 0.0
2018-Jul-14 19:21N 59°57' E 030°11'0 0.0
2018-Jul-14 18:45N 59°57' E 030°11'0 0.0
2018-Jul-14 18:19N 59°57' E 030°11'0 0.0
2018-Jul-14 17:39N 59°57' E 030°11'0 0.0
2018-Jul-14 17:21N 59°57' E 030°11'0 0.0
2018-Jul-14 16:54N 59°57' E 030°11'0 0.0
2018-Jul-14 16:21N 59°57' E 030°11'0 0.0
2018-Jul-14 15:57N 59°57' E 030°11'0 0.0
2018-Jul-14 15:21N 59°57' E 030°11'0 0.0
2018-Jul-14 14:57N 59°57' E 030°11'0 0.0
2018-Jul-14 13:57N 59°57' E 030°11'0 0.0
2018-Jul-14 13:30N 59°57' E 030°11'0 0.0
2018-Jul-14 12:56N 59°57' E 030°11'0 0.0
2018-Jul-14 12:15N 59°57' E 030°11'0 0.0
2018-Jul-14 11:57N 59°57' E 030°11'0 0.0
2018-Jul-14 11:24N 59°57' E 030°11'0 0.0
2018-Jul-14 11:00N 59°57' E 030°11'0 0.0
2018-Jul-14 10:24N 59°57' E 030°11'0 0.0
2018-Jul-14 10:00N 59°57' E 030°11'0 0.0
2018-Jul-14 09:18N 59°57' E 030°11'0 0.0
2018-Jul-14 09:00N 59°57' E 030°11'0 0.0
2018-Jul-14 08:18N 59°57' E 030°11'0 0.0
2018-Jul-14 08:00N 59°57' E 030°11'0 0.0
2018-Jul-14 07:27N 59°57' E 030°11'0 0.0
2018-Jul-14 07:00N 59°57' E 030°11'0 0.0
2018-Jul-14 06:27N 59°57' E 030°11'0 0.0
2018-Jul-14 05:54N 59°57' E 030°11'0 0.0
2018-Jul-14 05:30N 59°57' E 030°11'0 0.0
2018-Jul-14 05:00N 59°57' E 030°11'0 0.0
2018-Jul-14 04:30N 59°57' E 030°11'0 0.0
2018-Jul-14 03:54N 59°57' E 030°11'0 0.2
2018-Jul-14 03:31N 59°57' E 030°11'3 6.4
2018-Jul-14 02:59N 59°56' E 030°05'5 9.4
2018-Jul-14 02:30N 59°56' E 029°56'510.4
2018-Jul-14 02:01N 59°58' E 029°46'611.2
2018-Jul-14 01:29N 60°01' E 029°35'711.4
2018-Jul-14 00:54N 60°01' E 029°22'914.9
2018-Jul-14 00:19N 60°01' E 029°05'721.3
2018-Jul-14 00:01N 60°02' E 028°52'1121.5
2018-Jul-13 23:30N 60°03' E 028°30'1121.1
2018-Jul-13 23:00N 60°08' E 028°12'1121.6
2018-Jul-13 22:30N 60°10' E 027°51'1121.2
2018-Jul-13 22:00N 60°07' E 027°31'1222.0
2018-Jul-13 21:29N 60°00' E 027°12'1221.0
2018-Jul-13 20:54N 59°59' E 026°48'921.8
2018-Jul-13 20:31N 59°59' E 026°31'1121.9
2018-Jul-13 20:01N 59°56' E 026°09'1122.0
2018-Jul-13 19:30N 59°53' E 025°48'1221.3
2018-Jul-13 18:58N 59°53' E 025°25'1022.0
2018-Jul-13 18:31N 59°56' E 025°06'3 5.8
2018-Jul-13 18:00N 59°58' E 025°02'612.3
2018-Jul-13 17:30N 59°56' E 025°14'714.9
2018-Jul-13 17:01N 59°54' E 025°28'3 5.5
2018-Jul-13 16:30N 59°53' E 025°23'816.9
2018-Jul-13 16:00N 59°57' E 025°08'714.7
2018-Jul-13 15:30N 60°01' E 024°56'713.1
2018-Jul-13 15:00N 60°08' E 024°54'1 1.2
2018-Jul-13 14:00N 60°09' E 024°55'0 0.0
2018-Jul-13 13:30N 60°09' E 024°55'0 0.0
2018-Jul-13 13:00N 60°09' E 024°55'0 0.0
2018-Jul-13 12:30N 60°09' E 024°55'0 0.0
2018-Jul-13 12:00N 60°09' E 024°55'0 0.0
2018-Jul-13 11:30N 60°09' E 024°55'0 0.0
2018-Jul-13 10:54N 60°09' E 024°55'0 0.0
2018-Jul-13 10:30N 60°09' E 024°55'0 0.0
2018-Jul-13 10:00N 60°09' E 024°55'0 0.0
2018-Jul-13 09:30N 60°09' E 024°55'0 0.0
2018-Jul-13 09:00N 60°09' E 024°55'0 0.0
2018-Jul-13 08:30N 60°09' E 024°55'0 0.0
2018-Jul-13 08:00N 60°09' E 024°55'0 0.0
2018-Jul-13 07:30N 60°09' E 024°55'0 0.0
2018-Jul-13 07:00N 60°09' E 024°55'0 0.0
2018-Jul-13 06:30N 60°09' E 024°55'0 0.0
2018-Jul-13 06:00N 60°09' E 024°55'0 0.6
2018-Jul-13 05:31N 60°09' E 024°55'3 6.1
2018-Jul-13 05:00N 60°06' E 024°54'713.5
2018-Jul-13 04:31N 59°59' E 024°57'714.0
2018-Jul-13 04:00N 59°52' E 024°54'816.2
2018-Jul-13 03:30N 59°46' E 024°44'917.6
2018-Jul-13 03:00N 59°44' E 024°27'917.5
2018-Jul-13 02:30N 59°41' E 024°11'917.5
2018-Jul-13 02:00N 59°38' E 023°55'918.3
2018-Jul-13 01:31N 59°36' E 023°37'1019.5
2018-Jul-13 01:00N 59°33' E 023°19'1119.3
2018-Jul-13 00:27N 59°29' E 022°59'2819.1
2018-Jul-12 23:00N 59°16' E 022°11'1019.3
2018-Jul-12 22:30N 59°10' E 021°56'919.0
2018-Jul-12 22:00N 59°03' E 021°44'3319.2
2018-Jul-12 20:17N 58°43' E 020°53'  
Track history (hours):
 
Tides and Currents Weather Stations Pressure Air Temp Water Temp Dewpoint Dewpoint Depression Visibility Wind Speed Wind Dir Waves Ship Positions

Queen Victoria

Last reported at 2018-Jul-22 16:30 UTC. Time now 2018-Jul-22 16:26 UTC.
Position N 37°47' W 009°52'.

Length 294 m; draft 8 m.

Type: Passenger vessel. MMSI: 310624000.

Date/timePositionNaut miles runAvg speedWind from/ knotsBaromVisibWave heightAir tempDewpointWater temp
2018-Jul-22 16:30N 37°47' W 009°52'1218.5
2018-Jul-22 15:51N 37°59' W 009°55'1718.4
2018-Jul-22 14:57N 38°15' W 009°57'818.7
2018-Jul-22 14:30N 38°23' W 009°60'918.6
2018-Jul-22 14:00N 38°32' W 010°03'918.0
2018-Jul-22 13:30N 38°41' W 010°05'917.8
2018-Jul-22 13:00N 38°50' W 010°05'917.9
2018-Jul-22 12:30N 38°59' W 010°05'918.5
2018-Jul-22 12:00N 39°08' W 010°05'1019.2
2018-Jul-22 11:30N 39°18' W 010°05'1118.9
2018-Jul-22 10:56N 39°29' W 010°05'819.0
2018-Jul-22 10:30N 39°37' W 010°05'53619.5
2018-Jul-21 07:00N 48°00' W 005°48'3121.5 290 / 201014.1 5.4 17.816.620.0
2018-Jul-21 05:33N 48°28' W 005°28'319.6
2018-Jul-21 05:24N 48°31' W 005°26'819.7
2018-Jul-21 05:00N 48°36' W 005°18'1019.9
2018-Jul-21 04:30N 48°44' W 005°08'1019.9
2018-Jul-21 04:00N 48°50' W 004°57'1019.7
2018-Jul-21 03:30N 48°57' W 004°45'6518.6
2018-Jul-21 00:02N 49°41' W 003°33'418.0
2018-Jul-20 23:48N 49°43' W 003°27'518.0
2018-Jul-20 23:30N 49°47' W 003°21'918.3
2018-Jul-20 23:00N 49°53' W 003°10'918.7
2018-Jul-20 22:30N 49°59' W 002°60'918.9
2018-Jul-20 22:00N 50°02' W 002°46'1019.4
2018-Jul-20 21:30N 50°05' W 002°31'1619.8
2018-Jul-20 20:41N 50°11' W 002°08'420.2
2018-Jul-20 20:29N 50°13' W 002°03'1020.3
2018-Jul-20 20:00N 50°18' W 001°49'1320.8
2018-Jul-20 19:23N 50°24' W 001°32'1120.8
2018-Jul-20 18:52N 50°28' W 001°16'820.9
2018-Jul-20 18:30N 50°32' W 001°05'918.7
2018-Jul-20 18:00N 50°40' W 000°59'4 8.5
2018-Jul-20 17:30N 50°44' W 001°02'815.9
2018-Jul-20 17:00N 50°46' W 001°14'5 9.3
2018-Jul-20 16:30N 50°50' W 001°19'4 8.6
2018-Jul-20 16:00N 50°53' W 001°23'0 0.8
2018-Jul-20 15:28N 50°53' W 001°24'0 0.0
2018-Jul-20 14:58N 50°53' W 001°24'0 0.0
2018-Jul-20 14:28N 50°53' W 001°24'0 0.0
2018-Jul-20 13:52N 50°53' W 001°24'0 0.0
2018-Jul-20 13:25N 50°53' W 001°24'0 0.0
2018-Jul-20 12:58N 50°53' W 001°24'0 0.0
2018-Jul-20 12:28N 50°53' W 001°24'0 0.0
2018-Jul-20 11:58N 50°53' W 001°24'0 0.0
2018-Jul-20 11:28N 50°53' W 001°24'0 0.0
2018-Jul-20 10:58N 50°53' W 001°24'0 0.0
2018-Jul-20 10:28N 50°53' W 001°24'0 0.0
2018-Jul-20 09:58N 50°53' W 001°24'0 0.0
2018-Jul-20 09:28N 50°53' W 001°24'0 0.0
2018-Jul-20 08:58N 50°53' W 001°24'0 0.0
2018-Jul-20 08:28N 50°53' W 001°24'0 0.0
2018-Jul-20 07:58N 50°53' W 001°24'0 0.0
2018-Jul-20 07:28N 50°53' W 001°24'0 0.0
2018-Jul-20 06:58N 50°53' W 001°24'0 0.0
2018-Jul-20 06:28N 50°53' W 001°24'0 0.0
2018-Jul-20 05:58N 50°53' W 001°24'0 0.0
2018-Jul-20 05:30N 50°53' W 001°24'3 5.3
2018-Jul-20 05:00N 50°51' W 001°21'4 8.3
2018-Jul-20 04:30N 50°47' W 001°19'713.8
2018-Jul-20 04:01N 50°46' W 001°08'816.2
2018-Jul-20 03:31N 50°41' W 000°57'611.5
2018-Jul-20 03:00N 50°36' W 000°53'816.7
2018-Jul-20 02:30N 50°35' W 000°40'918.0
2018-Jul-20 02:00N 50°34' W 000°26'917.9
2018-Jul-20 01:30N 50°32' W 000°12'917.8
2018-Jul-20 01:00N 50°32' E 000°02'1020.0
2018-Jul-20 00:30N 50°35' E 000°17'1020.6
2018-Jul-20 00:00N 50°38' E 000°33'1121.6
2018-Jul-19 23:31N 50°44' E 000°46'1122.0
2018-Jul-19 23:00N 50°51' E 001°01'1122.3
2018-Jul-19 22:30N 50°58' E 001°14'1122.1
2018-Jul-19 22:00N 51°05' E 001°28'1121.5
2018-Jul-19 21:30N 51°12' E 001°41'1020.8
2018-Jul-19 21:00N 51°19' E 001°53'1020.2
2018-Jul-19 20:30N 51°27' E 002°02'1019.8
2018-Jul-19 20:01N 51°35' E 002°12'1818.0
2018-Jul-19 19:00N 51°48' E 002°31'917.5
2018-Jul-19 18:30N 51°57' E 002°33'917.7
2018-Jul-19 18:00N 52°06' E 002°36'918.1
2018-Jul-19 17:30N 52°14' E 002°41'918.8
2018-Jul-19 17:00N 52°23' E 002°47'1019.2
2018-Jul-19 16:30N 52°32' E 002°54'1019.7
2018-Jul-19 16:01N 52°40' E 003°02'1019.9
2018-Jul-19 15:30N 52°49' E 003°09'1019.9
2018-Jul-19 15:00N 52°58' E 003°17'2020.1
2018-Jul-19 14:00N 53°17' E 003°27'1019.9
2018-Jul-19 13:30N 53°27' E 003°32'1119.6
2018-Jul-19 12:58N 53°37' E 003°37'1018.4
2018-Jul-19 12:27N 53°45' E 003°45'918.8
2018-Jul-19 12:00N 53°50' E 003°56'2418.6
2018-Jul-19 10:43N 54°05' E 004°28'21719.3
2018-Jul-18 23:26N 57°06' E 008°02'2117.6
2018-Jul-18 22:15N 57°22' E 008°26'417.5
2018-Jul-18 22:00N 57°24' E 008°33'4217.5
2018-Jul-18 19:35N 57°47' E 009°40'117.9
2018-Jul-18 19:30N 57°47' E 009°42'917.6
2018-Jul-18 19:00N 57°50' E 009°58'918.3
2018-Jul-18 18:30N 57°50' E 010°15'1017.8
2018-Jul-18 17:57N 57°50' E 010°33'817.1
2018-Jul-18 17:31N 57°49' E 010°47'917.7
2018-Jul-18 17:00N 57°45' E 011°02'918.1
2018-Jul-18 16:30N 57°40' E 011°17'918.5
2018-Jul-18 16:00N 57°36' E 011°33'611.7
2018-Jul-18 15:31N 57°39' E 011°43'4 8.6
2018-Jul-18 15:01N 57°41' E 011°49'0 0.5
2018-Jul-18 14:28N 57°42' E 011°49'0 0.0
2018-Jul-18 13:28N 57°42' E 011°49'0 0.0
2018-Jul-18 12:58N 57°42' E 011°49'0 0.0
2018-Jul-18 12:28N 57°42' E 011°49'0 0.0
2018-Jul-18 11:58N 57°42' E 011°49'0 0.0
2018-Jul-18 11:28N 57°42' E 011°49'0 0.0
2018-Jul-18 10:28N 57°42' E 011°49'0 0.0
2018-Jul-18 09:58N 57°42' E 011°49'0 0.0
2018-Jul-18 09:28N 57°42' E 011°49'0 0.0
2018-Jul-18 08:58N 57°42' E 011°49'0 0.0
2018-Jul-18 08:28N 57°42' E 011°49'0 0.0
2018-Jul-18 07:58N 57°42' E 011°49'0 0.0
2018-Jul-18 07:28N 57°42' E 011°49'0 0.0
2018-Jul-18 06:58N 57°42' E 011°49'0 0.0
2018-Jul-18 06:28N 57°42' E 011°49'0 0.1
2018-Jul-18 06:01N 57°42' E 011°49'1 2.0
2018-Jul-18 05:31N 57°41' E 011°49'611.9
2018-Jul-18 05:00N 57°37' E 011°40'713.2
2018-Jul-18 04:31N 57°31' E 011°35'918.0
2018-Jul-18 04:00N 57°22' E 011°31'1019.7
2018-Jul-18 03:31N 57°13' E 011°37'1019.5
2018-Jul-18 03:01N 57°04' E 011°43'1019.3
2018-Jul-18 02:31N 56°54' E 011°48'918.8
2018-Jul-18 02:00N 56°45' E 011°54'1019.0
2018-Jul-18 01:30N 56°37' E 011°46'918.8
2018-Jul-18 01:00N 56°29' E 011°36'918.5
2018-Jul-18 00:30N 56°21' E 011°28'918.1
2018-Jul-18 00:00N 56°13' E 011°20'1416.7
2018-Jul-17 23:08N 56°01' E 011°05'215.9
2018-Jul-17 22:59N 55°59' E 011°03'815.6
2018-Jul-17 22:30N 55°53' E 010°54'4117.2
2018-Jul-17 20:08N 55°13' E 011°06'217.8
2018-Jul-17 20:00N 55°11' E 011°05'917.7
2018-Jul-17 19:30N 55°02' E 011°01'917.2
2018-Jul-17 19:00N 54°55' E 010°52'917.5
2018-Jul-17 18:30N 54°47' E 010°49'714.3
2018-Jul-17 18:00N 54°40' E 010°45'611.9
2018-Jul-17 17:31N 54°35' E 010°39'713.3
2018-Jul-17 17:00N 54°32' E 010°29'714.3
2018-Jul-17 16:30N 54°29' E 010°18'510.6
2018-Jul-17 16:00N 54°24' E 010°12'5 0.6
2018-Jul-17 06:38N 54°20' E 010°09'0 0.5
2018-Jul-17 06:24N 54°20' E 010°09'1 3.3
2018-Jul-17 06:00N 54°21' E 010°10'4 8.3
2018-Jul-17 05:30N 54°25' E 010°12'612.2
2018-Jul-17 05:01N 54°30' E 010°18'816.4
2018-Jul-17 04:30N 54°33' E 010°31'918.9
2018-Jul-17 04:01N 54°35' E 010°47'918.4
2018-Jul-17 03:31N 54°36' E 011°03'918.4
2018-Jul-17 03:00N 54°34' E 011°18'1019.1
2018-Jul-17 02:30N 54°30' E 011°33'918.7
2018-Jul-17 02:00N 54°26' E 011°47'918.7
2018-Jul-17 01:30N 54°26' E 012°04'816.1
2018-Jul-17 01:00N 54°31' E 012°13'917.4
2018-Jul-17 00:30N 54°39' E 012°22'1919.4
2018-Jul-16 23:30N 54°48' E 012°51'1121.4
2018-Jul-16 23:00N 54°52' E 013°08'1221.6
2018-Jul-16 22:27N 54°57' E 013°28'921.5
2018-Jul-16 22:00N 54°59' E 013°44'1121.7
2018-Jul-16 21:30N 55°03' E 014°02'1121.9
2018-Jul-16 21:00N 55°11' E 014°14'1122.2
2018-Jul-16 20:30N 55°20' E 014°27'1122.0
2018-Jul-16 20:00N 55°27' E 014°41'1121.7
2018-Jul-16 19:31N 55°32' E 014°57'1122.1
2018-Jul-16 19:00N 55°38' E 015°15'1121.8
2018-Jul-16 18:30N 55°43' E 015°31'1121.6
2018-Jul-16 18:00N 55°49' E 015°47'1121.7
2018-Jul-16 17:30N 55°54' E 016°04'1121.8
2018-Jul-16 17:01N 55°60' E 016°21'1121.8
2018-Jul-16 16:30N 56°06' E 016°37'1121.8
2018-Jul-16 16:00N 56°12' E 016°53'1121.7
2018-Jul-16 15:30N 56°19' E 017°09'1122.0
2018-Jul-16 15:00N 56°26' E 017°24'1122.0
2018-Jul-16 14:30N 56°33' E 017°39'1122.0
2018-Jul-16 14:00N 56°40' E 017°55'1121.9
2018-Jul-16 13:30N 56°46' E 018°11'6821.7
2018-Jul-16 10:23N 57°38' E 019°31'821.9
2018-Jul-16 10:01N 57°45' E 019°40'1122.0
2018-Jul-16 09:30N 57°54' E 019°53'1122.0
2018-Jul-16 09:00N 58°03' E 020°05'3622.1
2018-Jul-16 07:23N 58°31' E 020°45'822.0
2018-Jul-16 07:00N 58°38' E 020°55'1122.1
2018-Jul-16 06:30N 58°47' E 021°08'1122.1
2018-Jul-16 06:00N 58°56' E 021°20'1122.1
2018-Jul-16 05:31N 59°05' E 021°33'1121.8
2018-Jul-16 05:00N 59°13' E 021°48'1121.8
2018-Jul-16 04:31N 59°18' E 022°06'1121.7
2018-Jul-16 04:00N 59°25' E 022°22'1121.6
2018-Jul-16 03:31N 59°31' E 022°41'1121.8
2018-Jul-16 03:01N 59°34' E 023°01'1121.8
2018-Jul-16 02:30N 59°37' E 023°22'1121.9
2018-Jul-16 02:00N 59°41' E 023°43'1121.9
2018-Jul-16 01:30N 59°44' E 024°03'1122.2
2018-Jul-16 01:00N 59°48' E 024°24'1121.9
2018-Jul-16 00:30N 59°50' E 024°45'1121.6
2018-Jul-16 00:00N 59°52' E 025°06'1121.7
2018-Jul-15 23:30N 59°53' E 025°27'1121.7
2018-Jul-15 23:01N 59°55' E 025°49'1121.5
2018-Jul-15 22:29N 59°58' E 026°10'1021.6
2018-Jul-15 22:00N 60°01' E 026°30'1121.1
2018-Jul-15 21:30N 60°00' E 026°51'1020.3
2018-Jul-15 21:00N 60°02' E 027°11'1121.4
2018-Jul-15 20:30N 60°07' E 027°30'1121.5
2018-Jul-15 20:00N 60°12' E 027°49'1020.5
2018-Jul-15 19:30N 60°10' E 028°10'1020.6
2018-Jul-15 19:01N 60°04' E 028°27'1020.7
2018-Jul-15 18:30N 60°03' E 028°48'1120.4
2018-Jul-15 17:59N 60°02' E 029°09'1016.5
2018-Jul-15 17:24N 60°02' E 029°28'512.6
2018-Jul-15 16:58N 60°00' E 029°39'5 8.9
2018-Jul-15 16:27N 59°58' E 029°47'410.0
2018-Jul-15 16:01N 59°56' E 029°55'5 9.4
2018-Jul-15 15:27N 59°56' E 030°05'3 6.6
2018-Jul-15 15:00N 59°57' E 030°11'0 0.2
2018-Jul-15 14:25N 59°57' E 030°11'0 0.0
2018-Jul-15 13:45N 59°57' E 030°11'0 0.0
2018-Jul-15 13:27N 59°57' E 030°11'0 0.0
2018-Jul-15 13:00N 59°57' E 030°11'0 0.0
2018-Jul-15 12:26N 59°57' E 030°11'0 0.0
2018-Jul-15 11:45N 59°57' E 030°11'0 0.0
2018-Jul-15 11:21N 59°57' E 030°11'0 0.0
2018-Jul-15 10:45N 59°57' E 030°11'0 0.0
2018-Jul-15 10:21N 59°57' E 030°11'0 0.0
2018-Jul-15 09:54N 59°57' E 030°11'0 0.0
2018-Jul-15 09:21N 59°57' E 030°11'0 0.0
2018-Jul-15 08:39N 59°57' E 030°11'0 0.0
2018-Jul-15 08:21N 59°57' E 030°11'0 0.0
2018-Jul-15 07:57N 59°57' E 030°11'0 0.0
2018-Jul-15 07:21N 59°57' E 030°11'0 0.0
2018-Jul-15 06:57N 59°57' E 030°11'0 0.0
2018-Jul-15 06:21N 59°57' E 030°11'0 0.0
2018-Jul-15 05:56N 59°57' E 030°11'0 0.0
2018-Jul-15 05:30N 59°57' E 030°11'0 0.0
2018-Jul-15 04:57N 59°57' E 030°11'0 0.0
2018-Jul-15 04:15N 59°57' E 030°11'0 0.0
2018-Jul-15 03:57N 59°57' E 030°11'0 0.0
2018-Jul-15 03:15N 59°57' E 030°11'0 0.0
2018-Jul-15 02:51N 59°57' E 030°11'0 0.0
2018-Jul-15 02:15N 59°57' E 030°11'0 0.0
2018-Jul-15 01:51N 59°57' E 030°11'0 0.0
2018-Jul-15 01:27N 59°57' E 030°11'0 0.0
2018-Jul-15 00:51N 59°57' E 030°11'0 0.0
2018-Jul-15 00:27N 59°57' E 030°11'0 0.0
2018-Jul-14 23:51N 59°57' E 030°11'0 0.0
2018-Jul-14 23:27N 59°57' E 030°11'0 0.0
2018-Jul-14 23:00N 59°57' E 030°11'0 0.0
2018-Jul-14 22:27N 59°57' E 030°11'0 0.0
2018-Jul-14 21:45N 59°57' E 030°11'0 0.0
2018-Jul-14 21:27N 59°57' E 030°11'0 0.0
2018-Jul-14 21:00N 59°57' E 030°11'0 0.0
2018-Jul-14 20:27N 59°57' E 030°11'0 0.0
2018-Jul-14 19:45N 59°57' E 030°11'0 0.0
2018-Jul-14 19:21N 59°57' E 030°11'0 0.0
2018-Jul-14 18:45N 59°57' E 030°11'0 0.0
2018-Jul-14 18:19N 59°57' E 030°11'0 0.0
2018-Jul-14 17:39N 59°57' E 030°11'0 0.0
2018-Jul-14 17:21N 59°57' E 030°11'0 0.0
2018-Jul-14 16:54N 59°57' E 030°11'0 0.0
2018-Jul-14 16:21N 59°57' E 030°11'0 0.0
2018-Jul-14 15:57N 59°57' E 030°11'0 0.0
2018-Jul-14 15:21N 59°57' E 030°11'0 0.0
2018-Jul-14 14:57N 59°57' E 030°11'0 0.0
2018-Jul-14 13:57N 59°57' E 030°11'0 0.0
2018-Jul-14 13:30N 59°57' E 030°11'0 0.0
2018-Jul-14 12:56N 59°57' E 030°11'0 0.0
2018-Jul-14 12:15N 59°57' E 030°11'0 0.0
2018-Jul-14 11:57N 59°57' E 030°11'0 0.0
2018-Jul-14 11:24N 59°57' E 030°11'0 0.0
2018-Jul-14 11:00N 59°57' E 030°11'0 0.0
2018-Jul-14 10:24N 59°57' E 030°11'0 0.0
2018-Jul-14 10:00N 59°57' E 030°11'0 0.0
2018-Jul-14 09:18N 59°57' E 030°11'0 0.0
2018-Jul-14 09:00N 59°57' E 030°11'0 0.0
2018-Jul-14 08:18N 59°57' E 030°11'0 0.0
2018-Jul-14 08:00N 59°57' E 030°11'0 0.0
2018-Jul-14 07:27N 59°57' E 030°11'0 0.0
2018-Jul-14 07:00N 59°57' E 030°11'0 0.0
2018-Jul-14 06:27N 59°57' E 030°11'0 0.0
2018-Jul-14 05:54N 59°57' E 030°11'0 0.0
2018-Jul-14 05:30N 59°57' E 030°11'0 0.0
2018-Jul-14 05:00N 59°57' E 030°11'0 0.0
2018-Jul-14 04:30N 59°57' E 030°11'0 0.0
2018-Jul-14 03:54N 59°57' E 030°11'0 0.2
2018-Jul-14 03:31N 59°57' E 030°11'3 6.4
2018-Jul-14 02:59N 59°56' E 030°05'5 9.4
2018-Jul-14 02:30N 59°56' E 029°56'510.4
2018-Jul-14 02:01N 59°58' E 029°46'611.2
2018-Jul-14 01:29N 60°01' E 029°35'711.4
2018-Jul-14 00:54N 60°01' E 029°22'914.9
2018-Jul-14 00:19N 60°01' E 029°05'721.3
2018-Jul-14 00:01N 60°02' E 028°52'1121.5
2018-Jul-13 23:30N 60°03' E 028°30'1121.1
2018-Jul-13 23:00N 60°08' E 028°12'1121.6
2018-Jul-13 22:30N 60°10' E 027°51'1121.2
2018-Jul-13 22:00N 60°07' E 027°31'1222.0
2018-Jul-13 21:29N 60°00' E 027°12'1221.0
2018-Jul-13 20:54N 59°59' E 026°48'921.8
2018-Jul-13 20:31N 59°59' E 026°31'1121.9
2018-Jul-13 20:01N 59°56' E 026°09'1122.0
2018-Jul-13 19:30N 59°53' E 025°48'1221.3
2018-Jul-13 18:58N 59°53' E 025°25'1022.0
2018-Jul-13 18:31N 59°56' E 025°06'3 5.8
2018-Jul-13 18:00N 59°58' E 025°02'612.3
2018-Jul-13 17:30N 59°56' E 025°14'714.9
2018-Jul-13 17:01N 59°54' E 025°28'3 5.5
2018-Jul-13 16:30N 59°53' E 025°23'816.9
2018-Jul-13 16:00N 59°57' E 025°08'714.7
2018-Jul-13 15:30N 60°01' E 024°56'713.1
2018-Jul-13 15:00N 60°08' E 024°54'1 1.2
2018-Jul-13 14:00N 60°09' E 024°55'0 0.0
2018-Jul-13 13:30N 60°09' E 024°55'0 0.0
2018-Jul-13 13:00N 60°09' E 024°55'0 0.0
2018-Jul-13 12:30N 60°09' E 024°55'0 0.0
2018-Jul-13 12:00N 60°09' E 024°55'0 0.0
2018-Jul-13 11:30N 60°09' E 024°55'0 0.0
2018-Jul-13 10:54N 60°09' E 024°55'0 0.0
2018-Jul-13 10:30N 60°09' E 024°55'0 0.0
2018-Jul-13 10:00N 60°09' E 024°55'0 0.0
2018-Jul-13 09:30N 60°09' E 024°55'0 0.0
2018-Jul-13 09:00N 60°09' E 024°55'0 0.0
2018-Jul-13 08:30N 60°09' E 024°55'0 0.0
2018-Jul-13 08:00N 60°09' E 024°55'0 0.0
2018-Jul-13 07:30N 60°09' E 024°55'0 0.0
2018-Jul-13 07:00N 60°09' E 024°55'0 0.0
2018-Jul-13 06:30N 60°09' E 024°55'0 0.0
2018-Jul-13 06:00N 60°09' E 024°55'0 0.6
2018-Jul-13 05:31N 60°09' E 024°55'3 6.1
2018-Jul-13 05:00N 60°06' E 024°54'713.5
2018-Jul-13 04:31N 59°59' E 024°57'714.0
2018-Jul-13 04:00N 59°52' E 024°54'816.2
2018-Jul-13 03:30N 59°46' E 024°44'917.6
2018-Jul-13 03:00N 59°44' E 024°27'917.5
2018-Jul-13 02:30N 59°41' E 024°11'917.5
2018-Jul-13 02:00N 59°38' E 023°55'918.3
2018-Jul-13 01:31N 59°36' E 023°37'1019.5
2018-Jul-13 01:00N 59°33' E 023°19'1119.3
2018-Jul-13 00:27N 59°29' E 022°59'2819.1
2018-Jul-12 23:00N 59°16' E 022°11'1019.3
2018-Jul-12 22:30N 59°10' E 021°56'919.0
2018-Jul-12 22:00N 59°03' E 021°44'3319.2
2018-Jul-12 20:17N 58°43' E 020°53'  

Dump ship's entire track history